• Join FlightAware (Why Join?)
  • Login
  • US Flag 
07:37AM EST


 

Airport Tracker/Info


-or-


 

Live Flight TrackerFlight Track Log ✈ SWA508 ✈ 19-Jun-2013 ✈ TJSJ / SJU - KMCO

Flight Track Log - Related Links

Times and Time Zones

All times are in EDT time to prevent confusion due to time zone crossing. See the SWA508 flight status page for this flight to view local times or setup timezone preferences in your user account.

Time Position Orientation Groundspeed Altitude Reporting Facility
EDT Latitude Longitude Course Direction KTS MPH feet Rate Location/Type
09:39PM 18.4500 -65.9500 317° Northwest 200 230 1,700  Level San Juan Center
09:40PM 18.5167 -65.9833 335° Northwest 270 311 5,000 3,300 Climbing San Juan Center
09:41PM 18.5667 -66.0167 328° Northwest 270 311 8,300 2,700 Climbing San Juan Center
09:42PM 18.6333 -66.0833 317° Northwest 300 345 10,500 1,980 Climbing San Juan Center
09:43PM 18.6833 -66.1667 302° West 350 403 12,400 2,160 Climbing San Juan Center
09:44PM 18.7500 -66.2500 310° West 370 426 14,900 2,400 Climbing San Juan Center
09:45PM 18.9492 -66.4992 317° Northwest  Level FlightAware Approximate
09:45PM 18.8167 -66.3333 310° West 400 460 17,300  Level San Juan Center
09:46PM 18.9000 -66.4333 311° West 400 460 19,300 1,980 Climbing San Juan Center
09:47PM 18.9667 -66.5167 310° West 420 483 21,300 1,980 Climbing San Juan Center
09:48PM 19.0500 -66.6167 311° West 430 495 23,300 1,680 Climbing San Juan Center
09:49PM 19.1333 -66.7167 311° West 450 518 24,800 1,560 Climbing San Juan Center
09:50PM 19.2167 -66.8167 311° West 470 541 26,500 1,500 Climbing San Juan Center
09:51PM 19.3000 -66.9333 307° West 460 529 27,900 1,260 Climbing San Juan Center
09:52PM 19.3833 -67.0333 311° West 480 552 29,100 1,320 Climbing San Juan Center
09:53PM 19.4667 -67.1500 307° West 480 552 30,600 1,500 Climbing San Juan Center
09:54PM 19.5667 -67.2500 317° Northwest 470 541 32,100 1,200 Climbing San Juan Center
09:55PM 19.6333 -67.3500 305° West 470 541 33,100 960 Climbing San Juan Center
09:56PM 19.7167 -67.4667 307° West 450 518 34,100 900 Climbing San Juan Center
09:57PM 19.8000 -67.5833 307° West 470 541 35,000 900 Climbing San Juan Center
09:58PM 19.8833 -67.7000 307° West 480 552 36,000 480 Climbing San Juan Center
09:59PM 19.9667 -67.8000 312° West 480 552 36,000  Level San Juan Center
10:00PM 20.0500 -67.9167 307° West 480 552 36,000  Level San Juan Center
10:02PM 20.1703 -68.0711 310° West 493 567 36,000  Level Miami Center
10:03PM 20.2494 -68.1850 307° West 491 565 36,000  Level Miami Center
10:04PM 20.3203 -68.2997 303° West 480 552 36,000  Level Miami Center
10:05PM 20.4011 -68.4094 308° West 480 552 36,000  Level Miami Center
10:06PM 20.4800 -68.5194 307° West 475 547 36,000  Level Miami Center
10:07PM 20.5506 -68.6344 303° West 475 547 36,000  Level Miami Center
10:08PM 20.6292 -68.7447 307° West 475 547 36,000  Level Miami Center
10:09PM 20.7017 -68.8578 304° West 470 541 36,000  Level Miami Center
10:10PM 20.7783 -68.9706 306° West 470 541 36,000  Level Miami Center
10:11PM 20.8528 -69.0814 306° West 475 547 36,000  Level Miami Center
10:12PM 20.9292 -69.1969 305° West 475 547 36,000  Level Miami Center
10:13PM 21.0014 -69.3081 305° West 475 547 36,000  Level Miami Center
10:14PM 21.0736 -69.4194 305° West 475 547 36,000  Level Miami Center
10:15PM 21.1497 -69.5331 306° West 475 547 36,000  Level Miami Center
10:16PM 21.2217 -69.6447 305° West 475 547 36,000  Level Miami Center
10:17PM 21.2978 -69.7539 307° West 475 547 36,000  Level Miami Center
10:18PM 21.3758 -69.8656 307° West 470 541 36,000  Level Miami Center
10:19PM 21.4433 -69.9778 303° West 470 541 36,000  Level Miami Center
10:20PM 21.5150 -70.0878 305° West 470 541 36,000  Level Miami Center
10:21PM 21.5886 -70.1978 306° West 465 535 36,000  Level Miami Center
10:22PM 21.6644 -70.3100 306° West 460 529 36,000  Level Miami Center
10:23PM 21.7358 -70.4225 304° West 455 524 36,000  Level Miami Center
10:24PM 21.8072 -70.5328 305° West 455 524 36,000  Level Miami Center
10:25PM 21.8828 -70.6456 306° West 455 524 36,000  Level Miami Center
10:26PM 21.9539 -70.7583 304° West 450 518 36,000  Level Miami Center
10:27PM 22.0275 -70.8736 305° West 455 524 36,000  Level Miami Center
10:28PM 22.0986 -70.9844 305° West 455 524 36,000  Level Miami Center
10:29PM 22.1717 -71.0956 305° West 455 524 36,000  Level Miami Center
10:30PM 22.2425 -71.2089 304° West 450 518 36,000  Level Miami Center
10:31PM 22.3114 -71.3203 304° West 450 518 36,000  Level Miami Center
10:32PM 22.3822 -71.4294 305° West 450 518 36,000  Level Miami Center
10:33PM 22.4550 -71.5433 305° West 450 518 36,000  Level Miami Center
10:34PM 22.5236 -71.6528 304° West 450 518 36,000  Level Miami Center
10:35PM 22.5942 -71.7669 304° West 450 518 36,000  Level Miami Center
10:36PM 22.6628 -71.8811 303° West 450 518 36,000  Level Miami Center
10:37PM 22.7331 -71.9908 305° West 450 518 36,000  Level Miami Center
10:38PM 22.8033 -72.1008 305° West 450 518 36,000  Level Miami Center
10:39PM 22.8736 -72.2108 305° West 450 518 36,000  Level Miami Center
10:40PM 22.9419 -72.3258 303° West 450 518 36,000  Level Miami Center
10:41PM 23.0119 -72.4336 305° West 450 518 36,000  Level Miami Center
10:42PM 23.0803 -72.5600 300° West 445 512 36,000  Level Miami Center
10:43PM 23.1522 -72.6706 305° West 450 518 36,000  Level Miami Center
10:44PM 23.2203 -72.7836 303° West 450 518 36,000  Level Miami Center
10:45PM 23.2878 -72.8922 304° West 450 518 36,000  Level Miami Center
10:46PM 23.3575 -73.0008 305° West 450 518 36,000  Level Miami Center
10:47PM 23.4228 -73.1097 303° West 445 512 36,000  Level Miami Center
10:48PM 23.4944 -73.2208 305° West 445 512 36,000  Level Miami Center
10:49PM 23.5661 -73.3319 305° West 445 512 36,000  Level Miami Center
10:50PM 23.6250 -73.4417 300° West 445 512 36,000  Level Miami Center
10:51PM 23.6944 -73.5508 305° West 445 512 36,000  Level Miami Center
10:52PM 23.7594 -73.6625 302° West 445 512 36,000  Level Miami Center
10:53PM 23.8286 -73.7744 304° West 445 512 36,000  Level Miami Center
10:54PM 23.9000 -73.8861 305° West 450 518 36,000  Level Miami Center
10:55PM 23.9689 -73.9983 304° West 450 518 36,000  Level Miami Center
10:56PM 24.0339 -74.1106 302° West 450 518 36,000  Level Miami Center
10:57PM 24.1028 -74.2228 304° West 450 518 36,000  Level Miami Center
10:58PM 24.1694 -74.3353 303° West 450 518 36,000  Level Miami Center
10:59PM 24.2403 -74.4500 304° West 450 518 36,000  Level Miami Center
11:00PM 24.3047 -74.5628 302° West 450 518 36,000  Level Miami Center
11:01PM 24.3733 -74.6756 304° West 450 518 36,000  Level Miami Center
11:02PM 24.4375 -74.7864 302° West 450 518 36,000  Level Miami Center
11:03PM 24.5103 -74.9039 304° West 450 518 36,000  Level Miami Center
11:04PM 24.5764 -75.0169 303° West 450 518 36,000  Level Miami Center
11:05PM 24.6425 -75.1281 303° West 450 518 36,000  Level Miami Center
11:06PM 24.7108 -75.2483 302° West 450 518 36,000  Level Miami Center
11:07PM 24.7769 -75.3619 303° West 450 518 36,000  Level Miami Center
11:08PM 24.8447 -75.4756 303° West 450 518 36,000  Level Miami Center
11:09PM 24.9106 -75.5917 302° West 450 518 36,000  Level Miami Center
11:10PM 24.9786 -75.7056 303° West 450 518 36,000  Level Miami Center
11:11PM 25.0442 -75.8197 302° West 450 518 36,000  Level Miami Center
11:12PM 25.1158 -75.9339 305° West 450 518 36,000  Level Miami Center
11:13PM 25.1814 -76.0506 302° West 450 518 36,000  Level Miami Center
11:14PM 25.2467 -76.1672 302° West 450 518 36,000  Level Miami Center
11:15PM 25.3164 -76.2842 303° West 450 518 36,000  Level Miami Center
11:16PM 25.3836 -76.4011 302° West 450 518 36,000  Level Miami Center
11:17PM 25.4528 -76.5203 303° West 450 518 36,000  Level Miami Center
11:18PM 25.5200 -76.6400 302° West 450 518 36,000  Level Miami Center
11:19PM 25.5850 -76.7572 302° West 450 518 36,000  Level Miami Center
11:20PM 25.6539 -76.8750 303° West 450 518 36,000  Level Miami Center
11:21PM 25.7208 -76.9972 301° West 450 518 36,000  Level Miami Center
11:22PM 25.7917 -77.1172 303° West 450 518 36,000  Level Miami Center
11:23PM 25.8583 -77.2353 302° West 450 518 36,000  Level Miami Center
11:24PM 25.9228 -77.3533 301° West 450 518 36,000  Level Miami Center
11:25PM 25.9892 -77.4736 302° West 450 518 36,000  Level Miami Center
11:26PM 26.0492 -77.5781 303° West 450 518 36,000  Level Miami Center
11:27PM 26.1156 -77.6964 302° West 450 518 36,000  Level Miami Center
11:28PM 26.1817 -77.8197 301° West 450 518 36,000  Level Miami Center
11:29PM 26.2497 -77.9361 303° West 450 518 36,000  Level Miami Center
11:30PM 26.3136 -78.0572 300° West 450 518 36,000  Level Miami Center
11:31PM 26.3772 -78.1739 301° West 445 512 36,000  Level Miami Center
11:32PM 26.4408 -78.2953 300° West 451 519 36,000  Level Miami Center
11:33PM 26.5067 -78.4050 304° West 445 512 36,000  Level Miami Center
11:34PM 26.5700 -78.5244 301° West 445 512 36,000  Level Miami Center
11:35PM 26.6336 -78.6417 301° West 445 512 36,000  Level Miami Center
11:36PM 26.7031 -78.7611 303° West 445 512 36,000  Level Miami Center
11:37PM 26.7619 -78.8761 300° West 445 512 36,000  Level Miami Center
11:38PM 26.8253 -78.9914 302° West 445 512 36,000  Level Miami Center
11:39PM 26.8881 -79.1089 301° West 451 519 36,000 -120 Level Miami Center
11:40PM 26.9531 -79.2292 301° West 451 519 35,800 -660 Descending Miami Center
11:41PM 27.0219 -79.3564 301° West 446 513 34,700 -1,020 Descending Miami Center
11:42PM 27.0867 -79.4744 302° West 451 519 33,800 -960 Descending Miami Center
11:43PM 27.1514 -79.5950 301° West 451 519 32,900 -960 Descending Miami Center
11:44PM 27.2078 -79.7036 300° West 451 519 31,900 -960 Descending Miami Center
11:45PM 27.2742 -79.8267 301° West 451 519 31,000 -1,020 Descending Miami Center
11:46PM 27.3361 -79.9522 299° West 451 519 30,000 -1,020 Descending Miami Center
11:47PM 27.4003 -80.0756 300° West 456 525 29,000 -1,020 Descending Miami Center
11:48PM 27.4664 -80.1992 301° West 456 525 28,000 -1,080 Descending Miami Center
11:49PM 27.5283 -80.3181 300° West 456 525 27,000 -1,440 Descending Miami Center
11:50PM 27.5903 -80.4372 300° West 450 518 25,100 -1,920 Descending Miami Center
11:51PM 27.6581 -80.5611 302° West 439 505 22,800 -2,340 Descending Miami Center
11:52PM 27.7256 -80.6947 300° West 428 493 20,000 -2,520 Descending Miami Center
11:53PM 27.7853 -80.8000 303° West 403 464 17,700 -2,340 Descending Miami Center
11:55PM 27.9000 -81.0333 299° West 379 436 12,700 -2,160 Descending Orlando TRACON
11:56PM 27.9667 -81.1167 312° West 370 426 11,000 -960 Descending Orlando TRACON
11:57PM 28.0667 -81.1500 344° North 357 411 10,800 -360 Descending Orlando TRACON
11:58PM 28.1500 -81.1833 341° North 294 338 10,300 -1,020 Descending Orlando TRACON
11:59PM 28.2333 -81.1833 360° North 300 345 8,800 -1,380 Descending Orlando TRACON
12:00AM 28.3167 -81.1833 360° North 294 338 7,500 -1,200 Descending Orlando TRACON
12:01AM 28.3833 -81.1833 360° North 282 325 6,500 -1,320 Descending Orlando TRACON
12:02AM 28.4667 -81.1833 360° North 262 302 5,000 -1,560 Descending Orlando TRACON
12:03AM 28.5333 -81.2000 348° North 254 292 3,400 -1,380 Descending Orlando TRACON
12:04AM 28.5500 -81.2667 286° West 199 229 2,400 -1,080 Descending Orlando TRACON
12:05AM 28.5167 -81.3000 221° Southwest 152 175 1,400 -840 Descending Orlando TRACON
12:06AM 28.4667 -81.3000 180° South 143 165 700 -660 Descending Orlando TRACON
12:08AM 28.4294 -81.3090 199° South  Level Estimated